Time;durP1;ratioP1;P1;durP2;ratioP2;P2;SDS_P1;SDS_P2;PMS_P1;PMS_P2;Temp;Humidity;BMP_temperature;BMP_pressure;BME280_temperature;BME280_humidity;BME280_pressure;Samples;Min_cycle;Max_cycle;Signal;HPM_P1;HPM_P2
2023/07/26 00:02:17;;;;;;;3.55;1.17;;;;;;;;;;4974337;28;20022;-69
2023/07/26 00:04:42;;;;;;;3.25;1.25;;;;;;;;;;4974207;28;20031;-67
2023/07/26 00:07:08;;;;;;;4.93;1.30;;;;;;;;;;4974324;28;20077;-65
2023/07/26 00:09:34;;;;;;;2.78;1.48;;;;;;;;;;4973001;28;20479;-65
2023/07/26 00:11:59;;;;;;;3.67;1.27;;;;;;;;;;4973096;28;20029;-69
2023/07/26 00:14:25;;;;;;;3.20;1.10;;;;;;;;;;4973448;28;20018;-67
2023/07/26 00:16:50;;;;;;;2.70;1.25;;;;;;;;;;4972523;28;20034;-67
2023/07/26 00:19:19;;;;;;;3.00;1.25;;;;;;;;;;4973348;28;20026;-67
2023/07/26 00:21:45;;;;;;;3.40;1.15;;;;;;;;;;4971289;28;20023;-65
2023/07/26 00:24:11;;;;;;;2.25;1.05;;;;;;;;;;4972823;28;20058;-65
2023/07/26 00:26:38;;;;;;;3.42;1.52;;;;;;;;;;4964330;28;20027;-65
2023/07/26 00:29:04;;;;;;;5.15;1.40;;;;;;;;;;4972434;28;20034;-65
2023/07/26 00:31:29;;;;;;;13.90;1.30;;;;;;;;;;4972821;28;20030;-66
2023/07/26 00:33:55;;;;;;;3.22;1.23;;;;;;;;;;4972340;28;20023;-67
2023/07/26 00:36:20;;;;;;;3.85;1.02;;;;;;;;;;4972498;28;20022;-65
2023/07/26 00:38:46;;;;;;;5.03;1.40;;;;;;;;;;4962547;28;20031;-65
2023/07/26 00:41:12;;;;;;;4.72;1.20;;;;;;;;;;4963765;28;20448;-65
2023/07/26 00:43:38;;;;;;;2.20;1.05;;;;;;;;;;4961971;28;20090;-66
2023/07/26 00:46:06;;;;;;;3.15;1.20;;;;;;;;;;4972062;28;20039;-65
2023/07/26 00:48:34;;;;;;;2.58;1.10;;;;;;;;;;4972231;28;20213;-66
2023/07/26 00:51:00;;;;;;;3.72;1.30;;;;;;;;;;4972195;28;20030;-65
2023/07/26 00:53:27;;;;;;;2.47;1.13;;;;;;;;;;4962514;28;20089;-68
2023/07/26 00:55:54;;;;;;;1.83;1.17;;;;;;;;;;4963566;28;20431;-67
2023/07/26 00:58:20;;;;;;;2.20;0.95;;;;;;;;;;4961939;28;20039;-65
2023/07/26 01:00:47;;;;;;;3.70;1.38;;;;;;;;;;4975390;28;20038;-65
2023/07/26 01:03:14;;;;;;;5.55;1.20;;;;;;;;;;4976063;28;20031;-65
2023/07/26 01:06:04;;;;;;;3.50;1.15;;;;;;;;;;4976616;28;20034;-65
2023/07/26 01:08:44;;;;;;;4.75;1.15;;;;;;;;;;4977375;28;20106;-65
2023/07/26 01:11:34;;;;;;;2.95;1.20;;;;;;;;;;4977411;28;20035;-65
2023/07/26 01:14:09;;;;;;;4.67;1.27;;;;;;;;;;4977443;28;20357;-65
2023/07/26 01:16:36;;;;;;;4.38;1.35;;;;;;;;;;4976929;28;20751;-66
2023/07/26 01:19:01;;;;;;;4.13;1.00;;;;;;;;;;4977210;28;20055;-66
2023/07/26 01:21:32;;;;;;;5.00;1.10;;;;;;;;;;4977270;28;20035;-65
2023/07/26 01:23:58;;;;;;;3.25;1.10;;;;;;;;;;4977466;28;20103;-65
2023/07/26 01:26:24;;;;;;;4.57;1.35;;;;;;;;;;4977076;28;20018;-67
2023/07/26 01:28:49;;;;;;;3.50;1.10;;;;;;;;;;4977221;28;20106;-68
2023/07/26 01:31:17;;;;;;;1.95;1.17;;;;;;;;;;4976953;28;20031;-66
2023/07/26 01:33:44;;;;;;;2.55;1.20;;;;;;;;;;4976997;28;20035;-65
2023/07/26 01:36:11;;;;;;;1.67;0.90;;;;;;;;;;4976995;28;20026;-65
2023/07/26 01:38:38;;;;;;;4.00;1.17;;;;;;;;;;4976782;28;20090;-68
2023/07/26 01:41:04;;;;;;;3.90;1.40;;;;;;;;;;4976931;28;20031;-66
2023/07/26 01:43:31;;;;;;;3.80;1.20;;;;;;;;;;4976826;28;20026;-66
2023/07/26 01:45:56;;;;;;;3.15;1.20;;;;;;;;;;4976498;28;20163;-66
2023/07/26 01:48:22;;;;;;;5.70;1.23;;;;;;;;;;4957335;28;20031;-65
2023/07/26 01:50:47;;;;;;;3.13;1.30;;;;;;;;;;4958853;28;20110;-66
2023/07/26 01:53:13;;;;;;;2.28;1.20;;;;;;;;;;4976767;28;20027;-65
2023/07/26 01:55:39;;;;;;;3.88;1.35;;;;;;;;;;4976590;28;20049;-66
2023/07/26 01:58:04;;;;;;;2.35;1.25;;;;;;;;;;4976580;28;20030;-65
2023/07/26 02:00:30;;;;;;;3.58;1.02;;;;;;;;;;4976345;28;20034;-66
2023/07/26 02:02:55;;;;;;;5.07;1.20;;;;;;;;;;4976311;28;20507;-66
2023/07/26 02:05:21;;;;;;;5.65;1.20;;;;;;;;;;4976531;28;20035;-65
2023/07/26 02:07:47;;;;;;;3.13;1.25;;;;;;;;;;4976382;28;20019;-67
2023/07/26 02:10:12;;;;;;;2.88;1.27;;;;;;;;;;4976134;28;20564;-65
2023/07/26 02:12:38;;;;;;;5.15;1.60;;;;;;;;;;4976238;28;20031;-65
2023/07/26 02:15:05;;;;;;;5.13;1.55;;;;;;;;;;4976072;28;20102;-66
2023/07/26 02:17:31;;;;;;;5.93;1.60;;;;;;;;;;4976121;28;20405;-66
2023/07/26 02:19:56;;;;;;;4.35;1.20;;;;;;;;;;4976290;28;20019;-68
2023/07/26 02:22:22;;;;;;;7.57;1.13;;;;;;;;;;4976227;28;20420;-65
2023/07/26 02:24:47;;;;;;;5.90;1.50;;;;;;;;;;4976236;28;20034;-67
2023/07/26 02:27:13;;;;;;;4.60;1.23;;;;;;;;;;4976121;28;20022;-65
2023/07/26 02:29:38;;;;;;;5.43;1.25;;;;;;;;;;4975763;28;20019;-67
2023/07/26 02:32:04;;;;;;;2.72;1.30;;;;;;;;;;4976016;28;20067;-65
2023/07/26 02:34:30;;;;;;;6.10;1.30;;;;;;;;;;4975893;28;20027;-66
2023/07/26 02:36:55;;;;;;;2.70;1.10;;;;;;;;;;4975655;28;20089;-65
2023/07/26 02:39:21;;;;;;;5.45;1.38;;;;;;;;;;4975735;28;20034;-64
2023/07/26 02:41:47;;;;;;;3.72;1.40;;;;;;;;;;4975771;28;20019;-65
2023/07/26 02:44:12;;;;;;;5.38;1.48;;;;;;;;;;4975570;28;20098;-64
2023/07/26 02:46:38;;;;;;;3.25;1.27;;;;;;;;;;4975439;28;20045;-63
2023/07/26 02:49:03;;;;;;;3.05;1.30;;;;;;;;;;4975576;28;20077;-65
2023/07/26 02:51:29;;;;;;;6.05;1.48;;;;;;;;;;4975539;28;20042;-65
2023/07/26 02:53:54;;;;;;;6.88;1.40;;;;;;;;;;4975625;28;20030;-64
2023/07/26 02:56:20;;;;;;;4.60;1.30;;;;;;;;;;4975500;28;20074;-63
2023/07/26 02:58:45;;;;;;;5.60;1.67;;;;;;;;;;4975170;28;20038;-65
2023/07/26 03:01:11;;;;;;;3.20;1.30;;;;;;;;;;4975380;28;20122;-66
2023/07/26 03:03:36;;;;;;;3.42;1.27;;;;;;;;;;4975318;28;20035;-64
2023/07/26 03:06:02;;;;;;;4.90;1.50;;;;;;;;;;4975219;28;20041;-65
2023/07/26 03:08:28;;;;;;;3.80;1.40;;;;;;;;;;4975268;28;20026;-66
2023/07/26 03:10:53;;;;;;;4.85;1.45;;;;;;;;;;4975303;28;20031;-63
2023/07/26 03:13:19;;;;;;;5.05;1.50;;;;;;;;;;4975068;28;20023;-64
2023/07/26 03:15:45;;;;;;;3.63;1.40;;;;;;;;;;4975150;28;20473;-66
2023/07/26 03:18:11;;;;;;;3.60;1.35;;;;;;;;;;4974911;28;20436;-64
2023/07/26 03:20:36;;;;;;;3.78;1.40;;;;;;;;;;4975093;28;20112;-64
2023/07/26 03:23:02;;;;;;;3.45;1.63;;;;;;;;;;4974304;28;20077;-64
2023/07/26 03:25:27;;;;;;;4.85;1.80;;;;;;;;;;4974818;28;20026;-64
2023/07/26 03:27:53;;;;;;;4.78;1.60;;;;;;;;;;4974658;28;20126;-65
2023/07/26 03:30:19;;;;;;;16.85;7.40;;;;;;;;;;4974910;28;20391;-67
2023/07/26 03:32:44;;;;;;;10.02;2.20;;;;;;;;;;4974936;28;20023;-64
2023/07/26 03:35:10;;;;;;;7.97;2.20;;;;;;;;;;4974822;28;20427;-65
2023/07/26 03:37:35;;;;;;;8.55;2.15;;;;;;;;;;4974550;28;20053;-65
2023/07/26 03:40:01;;;;;;;7.15;2.20;;;;;;;;;;4974206;28;20050;-64
2023/07/26 03:42:27;;;;;;;17.55;3.65;;;;;;;;;;4974611;28;20094;-67
2023/07/26 03:44:53;;;;;;;7.88;1.70;;;;;;;;;;4974525;28;20042;-65
2023/07/26 03:47:19;;;;;;;8.27;1.88;;;;;;;;;;4974098;28;20047;-64
2023/07/26 03:49:44;;;;;;;6.38;1.60;;;;;;;;;;4974545;28;20023;-65
2023/07/26 03:52:10;;;;;;;3.63;1.73;;;;;;;;;;4974289;28;20507;-64
2023/07/26 03:54:35;;;;;;;9.73;1.83;;;;;;;;;;4974308;28;20104;-65
2023/07/26 03:57:01;;;;;;;6.93;2.00;;;;;;;;;;4974373;28;20030;-64
2023/07/26 03:59:27;;;;;;;4.25;1.60;;;;;;;;;;4974570;28;20092;-64
2023/07/26 04:01:52;;;;;;;3.25;1.70;;;;;;;;;;4974407;28;20439;-64
2023/07/26 04:04:18;;;;;;;4.90;1.58;;;;;;;;;;4974194;28;20023;-64
2023/07/26 04:06:43;;;;;;;4.80;1.98;;;;;;;;;;4974227;28;20027;-64
2023/07/26 04:09:09;;;;;;;5.60;1.90;;;;;;;;;;4973978;28;20023;-66
2023/07/26 04:11:34;;;;;;;5.30;2.00;;;;;;;;;;4974098;28;20117;-64
2023/07/26 04:14:00;;;;;;;5.50;1.60;;;;;;;;;;4974120;28;20019;-64
2023/07/26 04:16:25;;;;;;;4.57;1.80;;;;;;;;;;4974268;28;20468;-64
2023/07/26 04:18:52;;;;;;;3.70;1.55;;;;;;;;;;4974032;28;20035;-66
2023/07/26 04:21:17;;;;;;;4.55;1.73;;;;;;;;;;4974020;28;20469;-64
2023/07/26 04:23:45;;;;;;;9.13;1.50;;;;;;;;;;4973822;28;20031;-64
2023/07/26 04:26:11;;;;;;;5.25;1.55;;;;;;;;;;4974020;28;20026;-64
2023/07/26 04:28:37;;;;;;;4.25;1.67;;;;;;;;;;4973983;28;20023;-64
2023/07/26 04:31:03;;;;;;;3.60;1.40;;;;;;;;;;4973992;28;20019;-64
2023/07/26 04:33:29;;;;;;;7.30;1.40;;;;;;;;;;4973367;28;20053;-64
2023/07/26 04:35:57;;;;;;;9.88;1.88;;;;;;;;;;4973545;28;20118;-64
2023/07/26 04:38:23;;;;;;;4.28;1.67;;;;;;;;;;4973522;28;20081;-64
2023/07/26 04:40:48;;;;;;;5.60;1.90;;;;;;;;;;4973866;28;20484;-64
2023/07/26 04:43:21;;;;;;;6.13;1.60;;;;;;;;;;4973826;28;20046;-64
2023/07/26 04:45:51;;;;;;;3.67;1.48;;;;;;;;;;4973479;28;20047;-64
2023/07/26 04:48:18;;;;;;;3.92;1.40;;;;;;;;;;4973541;28;20034;-64
2023/07/26 04:50:46;;;;;;;4.63;1.27;;;;;;;;;;4973567;28;20027;-64
2023/07/26 04:53:11;;;;;;;12.93;1.75;;;;;;;;;;4973534;28;20476;-64
2023/07/26 04:55:49;;;;;;;6.07;1.60;;;;;;;;;;4973671;28;20035;-64
2023/07/26 04:58:15;;;;;;;6.00;1.50;;;;;;;;;;4973145;28;20456;-64
2023/07/26 05:00:41;;;;;;;5.55;1.70;;;;;;;;;;4973743;28;20104;-64
2023/07/26 05:03:09;;;;;;;4.85;1.42;;;;;;;;;;4973695;28;20023;-64
2023/07/26 05:05:35;;;;;;;3.00;1.30;;;;;;;;;;4973590;28;20023;-64
2023/07/26 05:08:02;;;;;;;4.55;1.55;;;;;;;;;;4973301;28;20385;-64
2023/07/26 05:10:28;;;;;;;5.85;1.60;;;;;;;;;;4973534;28;20330;-64
2023/07/26 05:12:55;;;;;;;3.55;1.30;;;;;;;;;;4973809;28;20030;-64
2023/07/26 05:15:21;;;;;;;4.38;1.45;;;;;;;;;;4973654;28;20019;-64
2023/07/26 05:17:46;;;;;;;5.50;1.55;;;;;;;;;;4973347;28;20031;-64
2023/07/26 05:20:12;;;;;;;4.55;1.60;;;;;;;;;;4973490;28;20077;-64
2023/07/26 05:22:38;;;;;;;2.92;1.40;;;;;;;;;;4973350;28;20543;-64
2023/07/26 05:25:04;;;;;;;3.70;1.45;;;;;;;;;;4973187;28;20034;-64
2023/07/26 05:27:30;;;;;;;5.25;1.38;;;;;;;;;;4973343;28;20038;-64
2023/07/26 05:29:57;;;;;;;6.63;1.52;;;;;;;;;;4973309;28;20026;-64
2023/07/26 05:32:26;;;;;;;7.93;1.40;;;;;;;;;;4973410;28;20038;-64
2023/07/26 05:34:55;;;;;;;3.83;1.33;;;;;;;;;;4973480;28;20035;-64
2023/07/26 05:37:22;;;;;;;5.50;1.40;;;;;;;;;;4973017;28;20062;-64
2023/07/26 05:39:48;;;;;;;10.18;1.30;;;;;;;;;;4973221;28;20074;-64
2023/07/26 05:42:14;;;;;;;7.85;1.38;;;;;;;;;;4973238;28;20160;-64
2023/07/26 05:44:39;;;;;;;5.85;1.77;;;;;;;;;;4973288;28;20084;-64
2023/07/26 05:47:05;;;;;;;4.13;1.48;;;;;;;;;;4976108;28;20066;-64
2023/07/26 05:49:31;;;;;;;3.42;1.20;;;;;;;;;;4976500;28;20030;-65
2023/07/26 05:51:57;;;;;;;5.32;1.60;;;;;;;;;;4976324;28;20112;-63
2023/07/26 05:54:23;;;;;;;5.03;1.40;;;;;;;;;;4976527;28;20034;-64
2023/07/26 05:56:49;;;;;;;7.05;1.40;;;;;;;;;;4976462;28;20022;-63
2023/07/26 05:59:14;;;;;;;4.47;1.40;;;;;;;;;;4976433;28;20465;-64
2023/07/26 06:01:40;;;;;;;7.97;1.83;;;;;;;;;;4976456;28;20023;-64
2023/07/26 06:04:05;;;;;;;7.75;1.35;;;;;;;;;;4976426;28;20074;-64
2023/07/26 06:06:31;;;;;;;8.57;1.40;;;;;;;;;;4976069;28;20070;-64
2023/07/26 06:08:57;;;;;;;5.95;1.27;;;;;;;;;;4976375;28;20057;-64
2023/07/26 06:11:23;;;;;;;6.13;1.50;;;;;;;;;;4976388;28;20480;-65
2023/07/26 06:13:49;;;;;;;4.05;1.20;;;;;;;;;;4976326;28;20042;-65
2023/07/26 06:16:15;;;;;;;5.55;1.55;;;;;;;;;;4976148;28;20033;-65
2023/07/26 06:18:40;;;;;;;5.10;1.42;;;;;;;;;;4976046;28;20035;-64
2023/07/26 06:21:06;;;;;;;5.03;1.20;;;;;;;;;;4975927;28;20046;-64
2023/07/26 06:23:31;;;;;;;5.93;1.38;;;;;;;;;;4975886;28;20053;-65
2023/07/26 06:25:57;;;;;;;4.68;1.20;;;;;;;;;;4976000;28;20487;-64
2023/07/26 06:28:22;;;;;;;5.15;1.30;;;;;;;;;;4975673;28;20485;-64
2023/07/26 06:30:48;;;;;;;5.43;1.55;;;;;;;;;;4975966;28;20385;-65
2023/07/26 06:33:14;;;;;;;5.63;1.40;;;;;;;;;;4975991;28;20023;-65
2023/07/26 06:35:40;;;;;;;3.92;1.13;;;;;;;;;;4974493;28;20376;-64
2023/07/26 06:38:05;;;;;;;8.82;1.50;;;;;;;;;;4971013;28;20090;-64
2023/07/26 06:40:31;;;;;;;3.70;1.27;;;;;;;;;;4975357;28;20027;-64
2023/07/26 06:42:57;;;;;;;7.10;1.60;;;;;;;;;;4975301;28;20023;-65
2023/07/26 06:45:22;;;;;;;3.55;1.20;;;;;;;;;;4975299;28;20062;-65
2023/07/26 06:47:48;;;;;;;5.90;1.40;;;;;;;;;;4975066;28;20039;-64
2023/07/26 06:50:14;;;;;;;20.60;2.45;;;;;;;;;;4974560;28;20089;-64
2023/07/26 06:52:39;;;;;;;8.70;1.45;;;;;;;;;;4974900;28;20027;-64
2023/07/26 06:55:05;;;;;;;5.38;1.52;;;;;;;;;;4975030;28;20026;-64
2023/07/26 06:57:31;;;;;;;5.22;1.40;;;;;;;;;;4974200;28;20034;-64
2023/07/26 06:59:57;;;;;;;4.43;1.33;;;;;;;;;;4975150;28;20031;-64
2023/07/26 07:02:22;;;;;;;4.15;1.35;;;;;;;;;;4975101;28;20031;-64
2023/07/26 07:04:48;;;;;;;5.35;1.70;;;;;;;;;;4974806;28;20073;-65
2023/07/26 07:07:13;;;;;;;3.42;1.17;;;;;;;;;;4974629;28;20031;-64
2023/07/26 07:09:39;;;;;;;6.97;1.48;;;;;;;;;;4973150;28;20019;-64
2023/07/26 07:12:07;;;;;;;8.10;1.60;;;;;;;;;;4974751;28;20129;-64
2023/07/26 07:14:33;;;;;;;5.10;1.40;;;;;;;;;;4975060;28;20526;-64
2023/07/26 07:17:00;;;;;;;5.15;1.30;;;;;;;;;;4974471;28;20161;-65
2023/07/26 07:19:26;;;;;;;3.17;1.33;;;;;;;;;;4973446;28;20558;-64
2023/07/26 07:21:51;;;;;;;5.85;1.50;;;;;;;;;;4974731;28;20027;-64
2023/07/26 07:24:17;;;;;;;8.15;1.50;;;;;;;;;;4974699;28;20109;-64
2023/07/26 07:26:42;;;;;;;4.18;2.28;;;;;;;;;;4974492;28;20018;-65
2023/07/26 07:29:08;;;;;;;6.15;1.50;;;;;;;;;;4974739;28;20027;-64
2023/07/26 07:31:33;;;;;;;3.22;1.33;;;;;;;;;;4974563;28;20372;-64
2023/07/26 07:33:59;;;;;;;2.55;1.20;;;;;;;;;;4974331;28;20023;-64
2023/07/26 07:36:25;;;;;;;4.43;1.45;;;;;;;;;;4974545;28;20050;-64
2023/07/26 07:38:50;;;;;;;4.72;1.35;;;;;;;;;;4974327;28;20031;-64
2023/07/26 07:41:16;;;;;;;3.67;1.33;;;;;;;;;;4974347;28;20023;-65
2023/07/26 07:43:41;;;;;;;6.78;1.50;;;;;;;;;;4974225;28;20023;-65
2023/07/26 07:46:07;;;;;;;4.05;1.25;;;;;;;;;;4974039;28;20495;-65
2023/07/26 07:48:34;;;;;;;5.38;1.60;;;;;;;;;;4974090;28;20414;-65
2023/07/26 07:51:00;;;;;;;3.92;1.30;;;;;;;;;;4974376;28;20468;-64
2023/07/26 07:53:25;;;;;;;5.88;1.60;;;;;;;;;;4974214;28;20114;-64
2023/07/26 07:55:51;;;;;;;5.95;1.80;;;;;;;;;;4974234;28;20026;-65
2023/07/26 07:58:17;;;;;;;7.75;1.50;;;;;;;;;;4973930;28;20161;-66
2023/07/26 08:00:43;;;;;;;5.78;1.40;;;;;;;;;;4974303;28;20077;-64
2023/07/26 08:03:09;;;;;;;7.57;1.80;;;;;;;;;;4973851;28;20033;-65
2023/07/26 08:05:35;;;;;;;6.07;1.20;;;;;;;;;;4974129;28;20030;-64
2023/07/26 08:08:00;;;;;;;5.32;1.80;;;;;;;;;;4973751;28;20490;-64
2023/07/26 08:10:26;;;;;;;4.88;1.77;;;;;;;;;;4973943;28;20023;-64
2023/07/26 08:12:52;;;;;;;9.40;1.65;;;;;;;;;;4973983;28;20105;-64
2023/07/26 08:15:17;;;;;;;4.30;1.30;;;;;;;;;;4973966;28;20026;-64
2023/07/26 08:17:43;;;;;;;6.50;1.55;;;;;;;;;;4973405;28;20031;-65
2023/07/26 08:20:09;;;;;;;8.27;1.60;;;;;;;;;;4973771;28;20026;-64
2023/07/26 08:22:35;;;;;;;4.05;1.50;;;;;;;;;;4973849;28;20039;-64
2023/07/26 08:25:01;;;;;;;5.05;1.80;;;;;;;;;;4973826;28;20029;-65
2023/07/26 08:27:26;;;;;;;3.78;1.50;;;;;;;;;;4973646;28;20429;-64
2023/07/26 08:29:52;;;;;;;5.07;1.60;;;;;;;;;;4973674;28;20023;-64
2023/07/26 08:32:18;;;;;;;3.25;1.50;;;;;;;;;;4973367;28;20033;-64
2023/07/26 08:34:43;;;;;;;4.82;1.50;;;;;;;;;;4973661;28;20031;-65
2023/07/26 08:37:09;;;;;;;4.65;1.67;;;;;;;;;;4973670;28;20027;-64
2023/07/26 08:39:37;;;;;;;6.63;1.80;;;;;;;;;;4973328;28;20058;-64
2023/07/26 08:42:03;;;;;;;3.25;1.45;;;;;;;;;;4973583;28;20089;-64
2023/07/26 08:44:31;;;;;;;6.40;1.90;;;;;;;;;;4973553;28;20079;-64
2023/07/26 08:46:57;;;;;;;4.65;1.67;;;;;;;;;;4973126;28;20050;-65
2023/07/26 08:49:23;;;;;;;5.43;2.03;;;;;;;;;;4973375;28;20380;-65
2023/07/26 08:51:49;;;;;;;5.50;1.63;;;;;;;;;;4973418;28;20046;-65
2023/07/26 08:54:14;;;;;;;3.85;1.75;;;;;;;;;;4973442;28;20489;-64
2023/07/26 08:56:40;;;;;;;3.25;1.63;;;;;;;;;;4973734;28;20046;-64
2023/07/26 08:59:07;;;;;;;4.65;1.75;;;;;;;;;;4973243;28;20026;-64
2023/07/26 09:01:33;;;;;;;4.60;1.63;;;;;;;;;;4973562;28;20026;-65
2023/07/26 09:03:59;;;;;;;5.65;2.08;;;;;;;;;;4974146;28;20029;-64
2023/07/26 09:06:24;;;;;;;3.88;1.58;;;;;;;;;;4973219;28;20030;-65
2023/07/26 09:08:51;;;;;;;5.15;1.80;;;;;;;;;;4973437;28;20038;-64
2023/07/26 09:11:25;;;;;;;3.63;1.60;;;;;;;;;;4972200;28;20031;-64
2023/07/26 09:13:55;;;;;;;4.10;1.58;;;;;;;;;;4973121;28;20444;-64
2023/07/26 09:16:21;;;;;;;3.60;1.60;;;;;;;;;;4972966;28;20133;-64
2023/07/26 09:19:01;;;;;;;4.90;1.90;;;;;;;;;;4973325;28;20026;-65
2023/07/26 09:21:28;;;;;;;5.53;1.40;;;;;;;;;;4975842;28;20126;-65
2023/07/26 09:23:54;;;;;;;5.50;1.92;;;;;;;;;;4976890;28;20058;-65
2023/07/26 09:26:42;;;;;;;6.68;1.98;;;;;;;;;;4976754;28;20062;-65
2023/07/26 09:29:16;;;;;;;12.20;3.22;;;;;;;;;;4976141;28;20027;-64
2023/07/26 09:31:43;;;;;;;4.38;1.67;;;;;;;;;;4975322;28;20113;-64
2023/07/26 09:34:12;;;;;;;23.73;4.82;;;;;;;;;;4974736;28;20039;-65
2023/07/26 09:36:44;;;;;;;4.10;1.55;;;;;;;;;;4974650;28;20109;-65
2023/07/26 09:39:11;;;;;;;3.47;1.30;;;;;;;;;;4974638;28;20377;-65
2023/07/26 09:41:37;;;;;;;7.40;1.77;;;;;;;;;;4974591;28;20502;-64
2023/07/26 09:44:18;;;;;;;4.90;1.92;;;;;;;;;;4974429;28;20030;-65
2023/07/26 09:46:55;;;;;;;3.40;1.70;;;;;;;;;;4975541;28;20043;-65
2023/07/26 09:49:22;;;;;;;4.88;1.70;;;;;;;;;;4976563;28;20030;-65
2023/07/26 09:51:53;;;;;;;10.80;3.20;;;;;;;;;;4976342;28;20026;-65
2023/07/26 09:54:20;;;;;;;6.85;1.77;;;;;;;;;;4976341;28;20038;-65
2023/07/26 09:56:45;;;;;;;5.50;1.58;;;;;;;;;;4976367;28;20111;-65
2023/07/26 09:59:12;;;;;;;4.18;1.73;;;;;;;;;;4976112;28;20491;-65
2023/07/26 10:01:43;;;;;;;8.70;2.10;;;;;;;;;;4976067;28;20026;-65
2023/07/26 10:04:15;;;;;;;3.47;1.60;;;;;;;;;;4976194;28;20385;-65
2023/07/26 10:06:42;;;;;;;6.07;1.70;;;;;;;;;;4976336;28;20034;-66
2023/07/26 10:09:13;;;;;;;8.90;2.92;;;;;;;;;;4976237;28;20447;-67
2023/07/26 10:11:41;;;;;;;13.43;3.20;;;;;;;;;;4975896;28;20057;-65
2023/07/26 10:14:10;;;;;;;8.00;1.77;;;;;;;;;;4976015;28;20023;-65
2023/07/26 10:16:37;;;;;;;11.57;2.72;;;;;;;;;;4975772;28;20023;-65
2023/07/26 10:19:03;;;;;;;11.23;2.55;;;;;;;;;;4974421;28;20396;-65
2023/07/26 10:21:30;;;;;;;5.60;1.90;;;;;;;;;;4975862;28;20027;-64
2023/07/26 10:24:02;;;;;;;4.80;2.10;;;;;;;;;;4975620;28;20053;-65
2023/07/26 10:26:30;;;;;;;6.65;2.72;;;;;;;;;;4975505;28;20037;-65
2023/07/26 10:28:59;;;;;;;8.75;2.53;;;;;;;;;;4975817;28;20544;-65
2023/07/26 10:31:26;;;;;;;4.75;1.75;;;;;;;;;;4975843;28;20480;-65
2023/07/26 10:33:54;;;;;;;7.15;2.10;;;;;;;;;;4975618;28;20058;-65
2023/07/26 10:36:20;;;;;;;5.80;1.80;;;;;;;;;;4975403;28;20149;-65
2023/07/26 10:38:50;;;;;;;5.68;1.98;;;;;;;;;;4975450;28;20114;-66
2023/07/26 10:41:35;;;;;;;4.07;1.73;;;;;;;;;;4975091;28;20061;-64
2023/07/26 10:44:05;;;;;;;7.75;2.35;;;;;;;;;;4975535;28;20507;-65
2023/07/26 10:46:55;;;;;;;4.93;2.30;;;;;;;;;;4975187;28;20551;-64
2023/07/26 10:49:28;;;;;;;4.97;2.05;;;;;;;;;;4975316;28;20023;-66
2023/07/26 10:52:00;;;;;;;7.22;2.50;;;;;;;;;;4975446;28;20038;-63
2023/07/26 10:54:43;;;;;;;5.25;2.22;;;;;;;;;;4975091;28;20027;-64
2023/07/26 10:57:21;;;;;;;3.65;1.70;;;;;;;;;;4974968;28;20388;-64
2023/07/26 11:00:06;;;;;;;5.18;2.47;;;;;;;;;;4975021;28;20038;-64
2023/07/26 11:02:37;;;;;;;5.95;2.13;;;;;;;;;;4975237;28;20416;-64
2023/07/26 11:05:06;;;;;;;5.90;2.08;;;;;;;;;;4974995;28;20468;-64
2023/07/26 11:07:55;;;;;;;3.65;2.03;;;;;;;;;;4974668;28;20376;-64
2023/07/26 11:10:30;;;;;;;5.60;2.20;;;;;;;;;;4974811;28;20392;-65
2023/07/26 11:13:12;;;;;;;6.15;2.35;;;;;;;;;;4974961;28;20547;-65
2023/07/26 11:15:43;;;;;;;5.18;2.13;;;;;;;;;;4974925;28;20038;-67
2023/07/26 11:18:09;;;;;;;5.38;2.13;;;;;;;;;;4974511;28;20357;-65
2023/07/26 11:20:54;;;;;;;3.60;2.28;;;;;;;;;;4974859;28;20400;-64
2023/07/26 11:23:25;;;;;;;5.07;2.28;;;;;;;;;;4974753;28;20101;-66
2023/07/26 11:25:59;;;;;;;4.78;1.90;;;;;;;;;;4974530;28;20031;-68
2023/07/26 11:28:31;;;;;;;4.00;1.80;;;;;;;;;;4974461;28;20038;-65
2023/07/26 11:30:58;;;;;;;4.70;2.08;;;;;;;;;;4974595;28;20027;-68
2023/07/26 11:33:31;;;;;;;3.97;1.92;;;;;;;;;;4974484;28;20023;-65
2023/07/26 11:35:59;;;;;;;3.97;1.92;;;;;;;;;;4974420;28;20030;-68
2023/07/26 11:38:24;;;;;;;6.90;1.92;;;;;;;;;;4974179;28;20050;-67
2023/07/26 11:40:53;;;;;;;2.80;1.50;;;;;;;;;;4974077;28;20476;-68
2023/07/26 11:43:20;;;;;;;3.08;1.60;;;;;;;;;;4973893;28;20022;-68
2023/07/26 11:45:45;;;;;;;2.92;1.67;;;;;;;;;;4974036;28;20050;-68
2023/07/26 11:48:14;;;;;;;3.58;1.77;;;;;;;;;;4974061;28;20030;-68
2023/07/26 11:50:39;;;;;;;4.13;1.35;;;;;;;;;;4974335;28;20037;-67
2023/07/26 11:53:07;;;;;;;5.07;1.85;;;;;;;;;;4973868;28;20102;-64
2023/07/26 11:55:33;;;;;;;4.53;1.40;;;;;;;;;;4974089;28;20086;-64
2023/07/26 11:58:06;;;;;;;3.33;1.50;;;;;;;;;;4973864;28;20081;-64
2023/07/26 12:00:33;;;;;;;3.60;1.80;;;;;;;;;;4974290;28;20455;-67
2023/07/26 12:03:01;;;;;;;4.03;1.70;;;;;;;;;;4974002;28;20019;-66
2023/07/26 12:05:28;;;;;;;5.45;1.77;;;;;;;;;;4973823;28;20035;-65
2023/07/26 12:07:56;;;;;;;6.25;1.92;;;;;;;;;;4973429;28;20054;-67
2023/07/26 12:10:34;;;;;;;3.67;1.90;;;;;;;;;;4973745;28;20105;-67
2023/07/26 12:13:04;;;;;;;3.95;1.58;;;;;;;;;;4973849;28;20031;-64
2023/07/26 12:15:30;;;;;;;2.80;1.50;;;;;;;;;;4974015;28;20581;-65
2023/07/26 12:17:58;;;;;;;4.70;1.85;;;;;;;;;;4973412;28;20034;-64
2023/07/26 12:20:25;;;;;;;2.60;1.50;;;;;;;;;;4973599;28;20061;-67
2023/07/26 12:22:55;;;;;;;6.65;2.22;;;;;;;;;;4973387;28;20036;-64
2023/07/26 12:25:33;;;;;;;4.00;2.00;;;;;;;;;;4972895;28;20104;-66
2023/07/26 12:27:59;;;;;;;2.53;1.40;;;;;;;;;;4972435;28;20091;-64
2023/07/26 12:30:26;;;;;;;4.18;1.45;;;;;;;;;;4973667;28;20112;-68
2023/07/26 12:33:28;;;;;;;3.05;1.58;;;;;;;;;;4973579;28;20416;-67
2023/07/26 12:35:55;;;;;;;4.25;1.80;;;;;;;;;;4914119;29;20071;-65
2023/07/26 12:38:22;;;;;;;3.20;1.70;;;;;;;;;;4913527;29;20152;-65
2023/07/26 12:40:50;;;;;;;3.03;1.70;;;;;;;;;;4913836;29;20040;-64
2023/07/26 12:43:27;;;;;;;4.18;1.67;;;;;;;;;;4913884;29;20047;-67
2023/07/26 12:45:54;;;;;;;4.32;1.80;;;;;;;;;;4913212;29;20075;-65
2023/07/26 12:48:20;;;;;;;4.40;1.65;;;;;;;;;;4912780;29;20036;-67
2023/07/26 12:50:46;;;;;;;2.28;1.30;;;;;;;;;;4913154;29;20032;-65
2023/07/26 12:53:13;;;;;;;2.97;1.55;;;;;;;;;;4912754;29;20091;-67
2023/07/26 12:55:39;;;;;;;4.32;1.65;;;;;;;;;;4914151;29;20393;-65
2023/07/26 12:58:06;;;;;;;3.80;1.75;;;;;;;;;;4916285;29;20060;-65
2023/07/26 13:00:32;;;;;;;3.10;1.50;;;;;;;;;;4916491;29;20031;-65
2023/07/26 13:02:58;;;;;;;3.65;1.65;;;;;;;;;;4916348;29;20506;-66
2023/07/26 13:05:23;;;;;;;5.05;1.60;;;;;;;;;;4916594;29;20038;-65
2023/07/26 13:07:50;;;;;;;3.05;1.80;;;;;;;;;;4916098;29;20382;-65
2023/07/26 13:10:16;;;;;;;2.55;1.60;;;;;;;;;;4943451;29;20039;-66
2023/07/26 13:12:41;;;;;;;5.20;1.52;;;;;;;;;;4956557;28;20077;-68
2023/07/26 13:15:07;;;;;;;3.65;1.40;;;;;;;;;;4956416;28;20090;-65
2023/07/26 13:17:32;;;;;;;3.67;1.58;;;;;;;;;;4969334;28;20118;-66
2023/07/26 13:19:58;;;;;;;11.10;1.75;;;;;;;;;;4975818;28;20019;-68
2023/07/26 13:22:24;;;;;;;9.65;2.40;;;;;;;;;;4975402;28;20034;-64
2023/07/26 13:24:49;;;;;;;3.58;1.67;;;;;;;;;;4975879;28;20058;-67
2023/07/26 13:27:15;;;;;;;3.67;1.50;;;;;;;;;;4975702;28;20488;-65
2023/07/26 13:29:41;;;;;;;3.35;1.50;;;;;;;;;;4975636;28;20380;-65
2023/07/26 13:32:07;;;;;;;3.67;1.58;;;;;;;;;;4975537;28;20110;-64
2023/07/26 13:34:32;;;;;;;3.40;1.42;;;;;;;;;;4975401;28;20472;-65
2023/07/26 13:36:58;;;;;;;4.22;1.63;;;;;;;;;;4975046;28;20110;-65
2023/07/26 13:39:23;;;;;;;2.80;1.40;;;;;;;;;;4975181;28;20019;-65
2023/07/26 13:41:49;;;;;;;3.88;1.50;;;;;;;;;;4975430;28;20163;-68
2023/07/26 13:44:15;;;;;;;8.27;1.73;;;;;;;;;;4975146;28;20030;-66
2023/07/26 13:46:41;;;;;;;3.03;1.63;;;;;;;;;;4929734;28;1337151;-68
2023/07/26 13:49:07;;;;;;;5.07;1.52;;;;;;;;;;4976236;28;20101;-68
2023/07/26 13:51:33;;;;;;;2.63;1.30;;;;;;;;;;4976411;28;20030;-65
2023/07/26 13:53:59;;;;;;;4.68;1.55;;;;;;;;;;4976466;28;20031;-67
2023/07/26 13:56:25;;;;;;;3.58;1.45;;;;;;;;;;4976331;28;20022;-65
2023/07/26 13:58:50;;;;;;;4.20;1.30;;;;;;;;;;4975031;28;20507;-67
2023/07/26 14:01:16;;;;;;;3.80;1.38;;;;;;;;;;4976408;28;20412;-68
2023/07/26 14:03:42;;;;;;;5.32;1.60;;;;;;;;;;4976048;28;20035;-68
2023/07/26 14:06:07;;;;;;;5.10;1.67;;;;;;;;;;4975822;28;20019;-68
2023/07/26 14:08:33;;;;;;;2.83;1.35;;;;;;;;;;4976154;28;20365;-65
2023/07/26 14:10:59;;;;;;;3.03;1.35;;;;;;;;;;4976019;28;20023;-65
2023/07/26 14:13:24;;;;;;;3.63;1.40;;;;;;;;;;4975989;28;20067;-65
2023/07/26 14:15:50;;;;;;;3.92;1.52;;;;;;;;;;4976153;28;20104;-65
2023/07/26 14:18:15;;;;;;;6.57;2.03;;;;;;;;;;4975481;28;20023;-65
2023/07/26 14:20:41;;;;;;;3.70;1.50;;;;;;;;;;4976096;28;20086;-68
2023/07/26 14:23:07;;;;;;;3.05;1.40;;;;;;;;;;4975788;28;20089;-65
2023/07/26 14:25:33;;;;;;;4.57;1.50;;;;;;;;;;4975933;28;20023;-68
2023/07/26 14:27:59;;;;;;;3.70;1.63;;;;;;;;;;4975889;28;20049;-66
2023/07/26 14:30:25;;;;;;;3.90;1.42;;;;;;;;;;4975740;28;20480;-68
2023/07/26 14:32:50;;;;;;;3.13;1.55;;;;;;;;;;4975567;28;20073;-65
2023/07/26 14:35:16;;;;;;;2.95;1.23;;;;;;;;;;4975707;28;20022;-68
2023/07/26 14:37:41;;;;;;;2.70;1.20;;;;;;;;;;4975600;28;20031;-66
2023/07/26 14:40:07;;;;;;;4.05;1.40;;;;;;;;;;4975610;28;20011;-67
2023/07/26 14:42:33;;;;;;;2.92;1.38;;;;;;;;;;4975593;28;20027;-66
2023/07/26 14:44:58;;;;;;;8.02;1.70;;;;;;;;;;4975406;28;20027;-65